| time (UTC) | temp F | wind direction | speed MPH | gust MPH | rain 1hr in | rain 24hr in | rain mn in | humidity % | barometer mb |
| 20260902134017 | 63 | 240 | 6.0 | 11.0 | 0.01 | 0.07 | 0.07 | 97 | 1016.1 |
| 20260902133517 | 63 | 237 | 4.0 | 14.0 | 0.02 | 0.07 | 0.07 | 97 | 1016.1 |
| 20260902133035 | 63 | 221 | 6.0 | 14.0 | 0.02 | 0.07 | 0.07 | 97 | 1016.2 |
| 20260902132521 | 62 | 181 | 3.0 | 10.0 | 0.03 | 0.07 | 0.07 | 97 | 1016.3 |
| 20260902132019 | 62 | 96 | 4.0 | 9.0 | 0.03 | 0.07 | 0.07 | 97 | 1016.3 |
| 20260902131537 | 62 | 196 | 3.0 | 8.0 | 0.04 | 0.07 | 0.07 | 97 | 1016.3 |
| 20260902131018 | 62 | 219 | 3.0 | 12.0 | 0.05 | 0.07 | 0.07 | 97 | 1016.4 |
| 20260902130518 | 62 | 217 | 3.0 | 12.0 | 0.05 | 0.07 | 0.07 | 97 | 1016.6 |
| 20260902130041 | 62 | 184 | 5.0 | 12.0 | 0.04 | 0.07 | 0.07 | 96 | 1016.7 |
| 20260902125521 | 62 | 194 | 3.0 | 10.0 | 0.04 | 0.07 | 0.07 | 96 | 1016.7 |
| 20260902125022 | 62 | 157 | 3.0 | 12.0 | 0.04 | 0.07 | 0.07 | 96 | 1016.9 |
| 20260902124535 | 62 | 235 | 6.0 | 12.0 | 0.03 | 0.06 | 0.06 | 95 | 1016.8 |
| 20260902124017 | 62 | 186 | 3.0 | 10.0 | 0.03 | 0.06 | 0.06 | 95 | 1017.0 |
| 20260902123517 | 62 | 171 | 3.0 | 12.0 | 0.03 | 0.05 | 0.05 | 94 | 1017.0 |
| 20260902123036 | 62 | 159 | 6.0 | 14.0 | 0.02 | 0.04 | 0.04 | 94 | 1017.0 |
| 20260902122520 | 63 | 233 | 7.0 | 16.0 | 0.01 | 0.03 | 0.03 | 93 | 1017.1 |
| 20260902122018 | 63 | 360 | 8.0 | 17.0 | 0.01 | 0.03 | 0.03 | 93 | 1017.1 |
| 20260902121535 | 63 | 233 | 10.0 | 17.0 | 0.00 | 0.03 | 0.03 | 91 | 1017.1 |
| 20260902121018 | 64 | 201 | 6.0 | 12.0 | 0.00 | 0.02 | 0.02 | 91 | 1017.2 |
| 20260902120518 | 64 | 101 | 6.0 | 12.0 | 0.00 | 0.02 | 0.02 | 91 | 1017.3 |
| 20260902120034 | 63 | 119 | 4.0 | 15.0 | 0.00 | 0.02 | 0.02 | 92 | 1017.2 |
| 20260902115520 | 63 | 160 | 7.0 | 15.0 | 0.00 | 0.02 | 0.02 | 92 | 1017.4 |
| 20260902115019 | 63 | 141 | 3.0 | 9.0 | 0.00 | 0.02 | 0.02 | 92 | 1017.5 |
| 20260902114602 | 63 | 125 | 3.0 | 11.0 | 0.00 | 0.02 | 0.02 | 92 | 1017.6 |
| 20260902114018 | 63 | 117 | 3.0 | 11.0 | 0.00 | 0.02 | 0.02 | 92 | 1017.5 |
| 20260902113518 | 63 | 153 | 4.0 | 10.0 | 0.00 | 0.02 | 0.02 | 91 | 1017.6 |
| 20260902113042 | 63 | 234 | 2.0 | 8.0 | 0.00 | 0.02 | 0.02 | 91 | 1017.8 |
| 20260902112517 | 63 | 148 | 2.0 | 8.0 | 0.00 | 0.02 | 0.02 | 90 | 1017.9 |
| 20260902112018 | 63 | 103 | 3.0 | 8.0 | 0.00 | 0.02 | 0.02 | 90 | 1018.0 |
| 20260902111535 | 63 | 144 | 2.0 | 8.0 | 0.00 | 0.02 | 0.02 | 90 | 1018.1 |
| 20260902111018 | 63 | 237 | 2.0 | 8.0 | 0.00 | 0.02 | 0.02 | 90 | 1018.2 |
| 20260902110519 | 63 | 215 | 3.0 | 8.0 | 0.00 | 0.02 | 0.02 | 90 | 1018.2 |
| 20260902110038 | 63 | 121 | 3.0 | 9.0 | 0.00 | 0.02 | 0.02 | 92 | 1018.4 |
| 20260902105518 | 62 | 123 | 3.0 | 9.0 | 0.00 | 0.02 | 0.02 | 91 | 1018.5 |
| 20260902105018 | 62 | 107 | 2.0 | 8.0 | 0.00 | 0.02 | 0.02 | 91 | 1018.6 |
| 20260902104538 | 62 | 147 | 2.0 | 11.0 | 0.00 | 0.02 | 0.02 | 89 | 1018.6 |
| 20260902104016 | 62 | 236 | 3.0 | 12.0 | 0.00 | 0.02 | 0.02 | 89 | 1018.7 |
| 20260902103517 | 62 | 229 | 4.0 | 12.0 | 0.00 | 0.02 | 0.02 | 88 | 1018.6 |
| 20260902103034 | 62 | 232 | 4.0 | 11.0 | 0.00 | 0.02 | 0.02 | 87 | 1018.7 |
| 20260902102521 | 62 | 211 | 5.0 | 10.0 | 0.00 | 0.02 | 0.02 | 87 | 1018.8 |
| 20260902102018 | 62 | 198 | 5.0 | 10.0 | 0.00 | 0.02 | 0.02 | 88 | 1018.8 |
| 20260902101532 | 62 | 360 | 3.0 | 9.0 | 0.00 | 0.02 | 0.02 | 88 | 1018.8 |
| 20260902101018 | 62 | 128 | 3.0 | 9.0 | 0.00 | 0.02 | 0.02 | 89 | 1018.9 |
| 20260902100518 | 62 | 184 | 3.0 | 8.0 | 0.00 | 0.02 | 0.02 | 89 | 1018.9 |
| 20260902100035 | 61 | 206 | 3.0 | 8.0 | 0.00 | 0.02 | 0.02 | 89 | 1018.9 |
| 20260902095518 | 61 | 165 | 3.0 | 12.0 | 0.00 | 0.02 | 0.02 | 89 | 1019.1 |
| 20260902095021 | 61 | 189 | 5.0 | 12.0 | 0.00 | 0.02 | 0.02 | 89 | 1019.1 |
| 20260902094535 | 61 | 360 | 5.0 | 11.0 | 0.00 | 0.02 | 0.02 | 89 | 1019.2 |
| 20260902094018 | 61 | 240 | 5.0 | 12.0 | 0.00 | 0.02 | 0.02 | 88 | 1019.2 |
| 20260902093520 | 61 | 360 | 7.0 | 12.0 | 0.00 | 0.02 | 0.02 | 89 | 1019.3 |
| 20260902093033 | 62 | 181 | 6.0 | 12.0 | 0.00 | 0.02 | 0.02 | 89 | 1019.1 |
| 20260902092519 | 62 | 223 | 5.0 | 12.0 | 0.00 | 0.02 | 0.02 | 90 | 1019.0 |
| 20260902092018 | 61 | 182 | 4.0 | 11.0 | 0.00 | 0.02 | 0.02 | 92 | 1019.1 |
| 20260902091545 | 61 | 191 | 5.0 | 11.0 | 0.00 | 0.02 | 0.02 | 91 | 1019.2 |
| 20260902091017 | 61 | 172 | 5.0 | 10.0 | 0.00 | 0.02 | 0.02 | 92 | 1019.1 |
| 20260902090519 | 61 | 225 | 6.0 | 10.0 | 0.00 | 0.02 | 0.02 | 94 | 1019.0 |
| 20260902090037 | 61 | 215 | 4.0 | 12.0 | 0.00 | 0.02 | 0.02 | 95 | 1019.0 |
| 20260902085517 | 61 | 187 | 4.0 | 13.0 | 0.00 | 0.02 | 0.02 | 95 | 1019.2 |
| 20260902085017 | 61 | 360 | 5.0 | 13.0 | 0.00 | 0.02 | 0.02 | 95 | 1019.1 |
| 20260902084531 | 60 | 206 | 5.0 | 11.0 | 0.00 | 0.02 | 0.02 | 95 | 1019.1 |
| 20260902084019 | 60 | 186 | 3.0 | 10.0 | 0.00 | 0.02 | 0.02 | 96 | 1019.2 |
| 20260902083518 | 60 | 191 | 4.0 | 10.0 | 0.00 | 0.02 | 0.02 | 96 | 1019.1 |
| 20260902083033 | 60 | 202 | 4.0 | 10.0 | 0.00 | 0.02 | 0.02 | 96 | 1019.1 |
| 20260902082516 | 60 | 205 | 4.0 | 9.0 | 0.00 | 0.02 | 0.02 | 96 | 1019.1 |
| 20260902082016 | 60 | 169 | 2.0 | 6.0 | 0.00 | 0.02 | 0.02 | 96 | 1019.1 |
| 20260902081539 | 59 | 254 | 2.0 | 6.0 | 0.00 | 0.02 | 0.02 | 96 | 1019.2 |
| 20260902081018 | 59 | 194 | 1.0 | 6.0 | 0.00 | 0.01 | 0.01 | 96 | 1019.2 |
| 20260902080518 | 59 | 221 | 2.0 | 6.0 | 0.00 | 0.01 | 0.01 | 96 | 1019.3 |
| 20260902080034 | 59 | 223 | 2.0 | 6.0 | 0.00 | 0.01 | 0.01 | 96 | 1019.3 |
| 20260902075518 | 59 | 194 | 1.0 | 5.0 | 0.00 | 0.01 | 0.01 | 96 | 1019.2 |
| 20260902075017 | 59 | 197 | 2.0 | 5.0 | 0.00 | 0.01 | 0.01 | 96 | 1019.2 |
| 20260902074543 | 59 | 194 | 1.0 | 6.0 | 0.00 | 0.01 | 0.01 | 96 | 1019.0 |
| 20260902074015 | 59 | 217 | 2.0 | 6.0 | 0.00 | 0.01 | 0.01 | 97 | 1019.2 |
| 20260902073518 | 59 | 191 | 2.0 | 6.0 | 0.00 | 0.01 | 0.01 | 97 | 1019.2 |
| 20260902073037 | 59 | 205 | 2.0 | 6.0 | 0.00 | 0.01 | 0.01 | 96 | 1019.1 |
| 20260902072518 | 59 | 232 | 2.0 | 7.0 | 0.00 | 0.01 | 0.01 | 96 | 1019.1 |
| 20260902072018 | 59 | 186 | 2.0 | 7.0 | 0.00 | 0.01 | 0.01 | 96 | 1019.3 |
| 20260902071533 | 59 | 232 | 2.0 | 6.0 | 0.00 | 0.01 | 0.01 | 96 | 1019.1 |
| 20260902071018 | 59 | 220 | 2.0 | 6.0 | 0.00 | 0.00 | 0.00 | 96 | 1019.1 |
| 20260902070517 | 59 | 222 | 2.0 | 6.0 | 0.00 | 0.00 | 0.00 | 96 | 1019.0 |
| 20260902070035 | 59 | 197 | 2.0 | 6.0 | 0.00 | 0.00 | 0.00 | 96 | 1018.9 |
| 20260902065517 | 59 | 219 | 2.0 | 6.0 | 0.00 | 0.00 | 0.00 | 96 | 1018.9 |
| 20260902065018 | 59 | 236 | 3.0 | 6.0 | 0.00 | 0.00 | 0.00 | 96 | 1018.9 |
| 20260902064535 | 59 | 198 | 2.0 | 5.0 | 0.00 | 0.00 | 0.00 | 96 | 1018.8 |
| 20260902064017 | 58 | 198 | 2.0 | 5.0 | 0.00 | 0.00 | 0.00 | 96 | 1018.9 |
| 20260902063517 | 58 | 203 | 2.0 | 5.0 | 0.00 | 0.00 | 0.00 | 96 | 1018.8 |
| 20260902063035 | 58 | 200 | 2.0 | 5.0 | 0.00 | 0.00 | 0.00 | 96 | 1018.8 |
| 20260902062519 | 58 | 201 | 2.0 | 5.0 | 0.00 | 0.00 | 0.00 | 96 | 1018.9 |
| 20260902062019 | 58 | 192 | 2.0 | 5.0 | 0.00 | 0.00 | 0.00 | 96 | 1018.8 |
| 20260902061541 | 58 | 213 | 2.0 | 5.0 | 0.00 | 0.00 | 0.00 | 96 | 1018.8 |
| 20260902061018 | 58 | 186 | 2.0 | 5.0 | 0.00 | 0.00 | 0.00 | 96 | 1018.8 |
| 20260902060518 | 58 | 223 | 2.0 | 5.0 | 0.00 | 0.00 | 0.00 | 96 | 1018.8 |
| 20260902060047 | 58 | 173 | 2.0 | 7.0 | 0.00 | 0.00 | 0.00 | 95 | 1018.8 |
| 20260902055522 | 58 | 206 | 2.0 | 7.0 | 0.00 | 0.00 | 0.00 | 95 | 1018.9 |
| 20260902055019 | 58 | 226 | 2.0 | 6.0 | 0.00 | 0.00 | 0.00 | 95 | 1018.9 |
| 20260902054540 | 58 | 188 | 2.0 | 5.0 | 0.00 | 0.00 | 0.00 | 95 | 1018.8 |
| 20260902054021 | 58 | 198 | 3.0 | 7.0 | 0.00 | 0.00 | 0.00 | 95 | 1018.7 |
| 20260902053519 | 58 | 195 | 3.0 | 7.0 | 0.00 | 0.00 | 0.00 | 95 | 1018.7 |
| 20260902053036 | 58 | 192 | 3.0 | 5.0 | 0.00 | 0.00 | 0.00 | 95 | 1018.8 |
| 20260902052517 | 58 | 195 | 3.0 | 5.0 | 0.00 | 0.00 | 0.00 | 94 | 1018.7 |
| 20260902052021 | 58 | 227 | 2.0 | 5.0 | 0.00 | 0.00 | 0.00 | 94 | 1018.9 |
| 20260902051536 | 58 | 211 | 2.0 | 5.0 | 0.00 | 0.00 | 0.00 | 94 | 1019.0 |
| 20260902051018 | 58 | 199 | 3.0 | 5.0 | 0.00 | 0.00 | 0.00 | 94 | 1018.9 |
| 20260902050518 | 58 | 191 | 2.0 | 5.0 | 0.00 | 0.00 | 0.00 | 94 | 1018.9 |
| 20260902050031 | 58 | 179 | 1.0 | 5.0 | 0.00 | 0.00 | 0.00 | 94 | 1018.9 |
| 20260902045518 | 58 | 189 | 1.0 | 5.0 | 0.00 | 0.00 | 0.00 | 94 | 1019.0 |
| 20260902045018 | 58 | 189 | 2.0 | 6.0 | 0.00 | 0.00 | 0.00 | 94 | 1019.1 |
| 20260902044535 | 58 | 249 | 2.0 | 6.0 | 0.00 | 0.00 | 0.00 | 94 | 1019.0 |
| 20260902044018 | 58 | 246 | 2.0 | 5.0 | 0.00 | 0.00 | 0.00 | 94 | 1019.1 |
| 20260902043518 | 58 | 199 | 2.0 | 5.0 | 0.00 | 0.00 | 0.00 | 94 | 1018.9 |
| 20260902043035 | 58 | 182 | 2.0 | 5.0 | 0.00 | 0.00 | 0.00 | 94 | 1019.0 |
| 20260902042518 | 58 | 190 | 2.0 | 5.0 | 0.00 | 0.00 | 0.00 | 94 | 1019.0 |
| 20260902042018 | 58 | 223 | 1.0 | 5.0 | 0.00 | 0.00 | 0.00 | 94 | 1019.0 |
| 20260902041536 | 58 | 189 | 1.0 | 5.0 | 0.00 | 0.00 | 0.00 | 94 | 1019.1 |
| 20260902041019 | 58 | 221 | 2.0 | 5.0 | 0.00 | 0.00 | 0.00 | 94 | 1019.1 |
| 20260902040518 | 58 | 203 | 1.0 | 3.0 | 0.00 | 0.00 | 0.00 | 94 | 1019.0 |
| 20260902040033 | 58 | 0 | 0.0 | 2.0 | 0.00 | 0.00 | 0.00 | 94 | 1019.1 |
| 20260902035519 | 58 | 0 | 0.0 | 2.0 | 0.00 | 0.00 | 0.00 | 94 | 1019.2 |
| 20260902035018 | 58 | 0 | 0.0 | 3.0 | 0.00 | 0.00 | 0.00 | 94 | 1019.1 |
| 20260902034535 | 58 | 0 | 0.0 | 3.0 | 0.00 | 0.00 | 0.00 | 94 | 1019.2 |
| 20260902034017 | 58 | 200 | 1.0 | 3.0 | 0.00 | 0.00 | 0.00 | 94 | 1019.2 |
| 20260902033518 | 58 | 198 | 1.0 | 4.0 | 0.00 | 0.00 | 0.00 | 93 | 1019.2 |
| 20260902033032 | 58 | 201 | 2.0 | 4.0 | 0.00 | 0.00 | 0.00 | 93 | 1019.2 |
| 20260902032519 | 58 | 202 | 0.0 | 4.0 | 0.00 | 0.00 | 0.00 | 93 | 1019.3 |
| 20260902032019 | 58 | 202 | 1.0 | 4.0 | 0.00 | 0.00 | 0.00 | 93 | 1019.2 |
| 20260902031534 | 58 | 205 | 1.0 | 3.0 | 0.00 | 0.00 | 0.00 | 93 | 1019.3 |
| 20260902031017 | 58 | 205 | 1.0 | 3.0 | 0.00 | 0.00 | 0.00 | 93 | 1019.3 |
| 20260902030519 | 58 | 0 | 0.0 | 0.0 | 0.00 | 0.00 | 0.00 | 92 | 1019.4 |
| 20260902030031 | 58 | 0 | 0.0 | 0.0 | 0.00 | 0.00 | 0.00 | 92 | 1019.4 |
| 20260902025519 | 58 | 0 | 0.0 | 0.0 | 0.00 | 0.00 | 0.00 | 91 | 1019.4 |
| 20260902025018 | 58 | 0 | 0.0 | 0.0 | 0.00 | 0.00 | 0.00 | 91 | 1019.4 |
| 20260902024537 | 58 | 0 | 0.0 | 0.0 | 0.00 | 0.00 | 0.00 | 91 | 1019.6 |
| 20260902024021 | 58 | 0 | 0.0 | 0.0 | 0.00 | 0.00 | 0.00 | 91 | 1019.4 |
| 20260902023518 | 59 | 0 | 0.0 | 4.0 | 0.00 | 0.00 | 0.00 | 91 | 1019.6 |
| 20260902023037 | 59 | 0 | 0.0 | 4.0 | 0.00 | 0.00 | 0.00 | 91 | 1019.5 |
| 20260902022518 | 59 | 197 | 2.0 | 4.0 | 0.00 | 0.00 | 0.00 | 90 | 1019.7 |
| 20260902022018 | 59 | 229 | 1.0 | 4.0 | 0.00 | 0.00 | 0.00 | 90 | 1019.6 |
| 20260902021536 | 59 | 213 | 2.0 | 6.0 | 0.00 | 0.00 | 0.00 | 90 | 1019.7 |
| 20260902021017 | 59 | 234 | 2.0 | 6.0 | 0.00 | 0.00 | 0.00 | 90 | 1019.8 |
| 20260902020516 | 59 | 229 | 1.0 | 4.0 | 0.00 | 0.00 | 0.00 | 90 | 1019.8 |
| 20260902020032 | 59 | 227 | 1.0 | 4.0 | 0.00 | 0.00 | 0.00 | 90 | 1019.8 |
| 20260902015518 | 59 | 212 | 1.0 | 4.0 | 0.00 | 0.00 | 0.00 | 90 | 1019.8 |
| 20260902015018 | 59 | 235 | 1.0 | 3.0 | 0.00 | 0.00 | 0.00 | 90 | 1019.8 |
| 20260902014537 | 59 | 239 | 0.0 | 3.0 | 0.00 | 0.00 | 0.00 | 90 | 1019.9 |
| 20260902014017 | 59 | 0 | 0.0 | 2.0 | 0.00 | 0.00 | 0.00 | 90 | 1019.8 |
| 20260902013518 | 59 | 0 | 0.0 | 3.0 | 0.00 | 0.00 | 0.00 | 90 | 1019.7 |
| 20260902013038 | 59 | 240 | 1.0 | 3.0 | 0.00 | 0.00 | 0.00 | 90 | 1019.7 |
| 20260902012518 | 59 | 0 | 0.0 | 4.0 | 0.00 | 0.00 | 0.00 | 90 | 1019.8 |
| 20260902012017 | 59 | 242 | 1.0 | 6.0 | 0.00 | 0.00 | 0.00 | 90 | 1019.7 |
| 20260902011538 | 59 | 244 | 2.0 | 7.0 | 0.00 | 0.00 | 0.00 | 90 | 1019.8 |
| 20260902011017 | 58 | 192 | 3.0 | 7.0 | 0.00 | 0.00 | 0.00 | 90 | 1019.8 |
| 20260902010518 | 58 | 207 | 3.0 | 6.0 | 0.00 | 0.00 | 0.00 | 90 | 1019.8 |
| 20260902010035 | 58 | 202 | 2.0 | 5.0 | 0.00 | 0.00 | 0.00 | 90 | 1019.8 |
| 20260902005518 | 58 | 194 | 3.0 | 5.0 | 0.00 | 0.00 | 0.00 | 90 | 1019.9 |
| 20260902005020 | 58 | 186 | 2.0 | 5.0 | 0.00 | 0.00 | 0.00 | 90 | 1020.0 |
| 20260902004532 | 58 | 196 | 1.0 | 4.0 | 0.00 | 0.00 | 0.00 | 90 | 1020.1 |
| 20260902004015 | 58 | 234 | 1.0 | 4.0 | 0.00 | 0.00 | 0.00 | 90 | 1020.0 |
| 20260902003517 | 58 | 234 | 2.0 | 4.0 | 0.00 | 0.00 | 0.00 | 90 | 1020.1 |
| 20260902003035 | 58 | 232 | 2.0 | 4.0 | 0.00 | 0.00 | 0.00 | 89 | 1020.1 |
| 20260902002518 | 58 | 223 | 2.0 | 6.0 | 0.00 | 0.00 | 0.00 | 90 | 1020.2 |
| 20260902002017 | 58 | 211 | 2.0 | 6.0 | 0.00 | 0.00 | 0.00 | 90 | 1020.2 |
| 20260902001545 | 58 | 220 | 2.0 | 5.0 | 0.00 | 0.00 | 0.00 | 90 | 1020.1 |
| 20260902001017 | 57 | 245 | 2.0 | 5.0 | 0.00 | 0.00 | 0.00 | 90 | 1020.1 |
| 20260902000517 | 57 | 223 | 2.0 | 5.0 | 0.00 | 0.00 | 0.00 | 90 | 1020.2 |
| 20260902000041 | 57 | 225 | 2.0 | 5.0 | 0.00 | 0.00 | 0.00 | 90 | 1020.2 |
| 20260901235516 | 57 | 238 | 2.0 | 4.0 | 0.00 | 0.00 | 0.00 | 90 | 1020.2 |
| 20260901235018 | 57 | 232 | 2.0 | 4.0 | 0.00 | 0.00 | 0.00 | 91 | 1020.3 |
| 20260901234533 | 57 | 219 | 2.0 | 4.0 | 0.00 | 0.00 | 0.00 | 91 | 1020.2 |
| 20260901234018 | 56 | 231 | 1.0 | 3.0 | 0.00 | 0.00 | 0.00 | 91 | 1020.1 |
| 20260901233516 | 56 | 230 | 1.0 | 3.0 | 0.00 | 0.00 | 0.00 | 91 | 1020.2 |
| 20260901233045 | 56 | 227 | 1.0 | 3.0 | 0.00 | 0.00 | 0.00 | 91 | 1020.2 |
| 20260901232518 | 56 | 0 | 0.0 | 0.0 | 0.00 | 0.00 | 0.00 | 91 | 1020.1 |
| 20260901232019 | 56 | 0 | 0.0 | 2.0 | 0.00 | 0.00 | 0.00 | 91 | 1020.3 |
| 20260901231533 | 56 | 0 | 0.0 | 2.0 | 0.00 | 0.00 | 0.00 | 91 | 1020.3 |
| 20260901231017 | 56 | 0 | 0.0 | 0.0 | 0.00 | 0.00 | 0.00 | 91 | 1020.3 |
| 20260901230518 | 56 | 0 | 0.0 | 1.0 | 0.00 | 0.00 | 0.00 | 91 | 1020.3 |
| 20260901230036 | 55 | 0 | 0.0 | 1.0 | 0.00 | 0.00 | 0.00 | 90 | 1020.4 |
| 20260901225517 | 56 | 0 | 0.0 | 0.0 | 0.00 | 0.00 | 0.00 | 89 | 1020.4 |
| 20260901225020 | 56 | 0 | 0.0 | 0.0 | 0.00 | 0.00 | 0.00 | 89 | 1020.4 |
| 20260901224534 | 56 | 0 | 0.0 | 0.0 | 0.00 | 0.00 | 0.00 | 89 | 1020.3 |
| 20260901224018 | 56 | 0 | 0.0 | 0.0 | 0.00 | 0.00 | 0.00 | 88 | 1020.4 |
| 20260901223518 | 56 | 0 | 0.0 | 0.0 | 0.00 | 0.00 | 0.00 | 88 | 1020.4 |
| 20260901223034 | 56 | 0 | 0.0 | 0.0 | 0.00 | 0.00 | 0.00 | 87 | 1020.4 |
| 20260901222518 | 57 | 0 | 0.0 | 0.0 | 0.00 | 0.00 | 0.00 | 87 | 1020.4 |
| 20260901222017 | 57 | 0 | 0.0 | 0.0 | 0.00 | 0.00 | 0.00 | 87 | 1020.4 |
| 20260901221534 | 57 | 0 | 0.0 | 0.0 | 0.00 | 0.00 | 0.00 | 88 | 1020.4 |
| 20260901221018 | 57 | 0 | 0.0 | 1.0 | 0.00 | 0.00 | 0.00 | 87 | 1020.4 |
| 20260901220517 | 57 | 0 | 0.0 | 2.0 | 0.00 | 0.00 | 0.00 | 87 | 1020.5 |
| 20260901220045 | 57 | 0 | 0.0 | 2.0 | 0.00 | 0.00 | 0.00 | 87 | 1020.4 |
| 20260901215518 | 57 | 225 | 0.0 | 2.0 | 0.00 | 0.00 | 0.00 | 87 | 1020.4 |
| 20260901215021 | 57 | 0 | 0.0 | 2.0 | 0.00 | 0.00 | 0.00 | 86 | 1020.5 |
| 20260901214534 | 57 | 225 | 1.0 | 2.0 | 0.00 | 0.00 | 0.00 | 86 | 1020.5 |
| 20260901214017 | 58 | 0 | 0.0 | 0.0 | 0.00 | 0.00 | 0.00 | 85 | 1020.4 |
| 20260901213516 | 58 | 0 | 0.0 | 0.0 | 0.00 | 0.00 | 0.00 | 85 | 1020.4 |
| 20260901213035 | 58 | 0 | 0.0 | 0.0 | 0.00 | 0.00 | 0.00 | 85 | 1020.4 |
| 20260901212518 | 59 | 0 | 0.0 | 0.0 | 0.00 | 0.00 | 0.00 | 85 | 1020.5 |
| 20260901212019 | 59 | 0 | 0.0 | 0.0 | 0.00 | 0.00 | 0.00 | 85 | 1020.5 |
| 20260901211538 | 59 | 0 | 0.0 | 0.0 | 0.00 | 0.00 | 0.00 | 85 | 1020.5 |
| 20260901211019 | 59 | 0 | 0.0 | 0.0 | 0.00 | 0.00 | 0.00 | 85 | 1020.5 |
| 20260901210519 | 59 | 0 | 0.0 | 0.0 | 0.00 | 0.00 | 0.00 | 84 | 1020.5 |
| 20260901210038 | 60 | 0 | 0.0 | 0.0 | 0.00 | 0.00 | 0.00 | 84 | 1020.6 |
| 20260901205521 | 60 | 0 | 0.0 | 0.0 | 0.00 | 0.00 | 0.00 | 84 | 1020.6 |
| 20260901205018 | 60 | 0 | 0.0 | 0.0 | 0.00 | 0.00 | 0.00 | 83 | 1020.6 |
| 20260901204532 | 60 | 0 | 0.0 | 0.0 | 0.00 | 0.00 | 0.00 | 83 | 1020.6 |
| 20260901204018 | 60 | 0 | 0.0 | 0.0 | 0.00 | 0.00 | 0.00 | 83 | 1020.5 |
| 20260901203517 | 60 | 0 | 0.0 | 1.0 | 0.00 | 0.00 | 0.00 | 82 | 1020.6 |
| 20260901203038 | 60 | 0 | 0.0 | 2.0 | 0.00 | 0.00 | 0.00 | 82 | 1020.6 |
| 20260901202518 | 60 | 0 | 0.0 | 2.0 | 0.00 | 0.00 | 0.00 | 82 | 1020.5 |
| 20260901202018 | 60 | 225 | 0.0 | 2.0 | 0.00 | 0.00 | 0.00 | 81 | 1020.5 |
| 20260901201539 | 61 | 0 | 0.0 | 2.0 | 0.00 | 0.00 | 0.00 | 81 | 1020.5 |
| 20260901201018 | 61 | 0 | 0.0 | 0.0 | 0.00 | 0.00 | 0.00 | 81 | 1020.5 |
| 20260901200523 | 61 | 0 | 0.0 | 0.0 | 0.00 | 0.00 | 0.00 | 81 | 1020.4 |
| 20260901200031 | 61 | 0 | 0.0 | 0.0 | 0.00 | 0.00 | 0.00 | 81 | 1020.5 |
| 20260901195518 | 61 | 0 | 0.0 | 0.0 | 0.00 | 0.00 | 0.00 | 81 | 1020.5 |
| 20260901195021 | 61 | 0 | 0.0 | 0.0 | 0.00 | 0.00 | 0.00 | 81 | 1020.5 |
| 20260901194538 | 62 | 0 | 0.0 | 0.0 | 0.00 | 0.00 | 0.00 | 80 | 1020.4 |
| 20260901194018 | 62 | 0 | 0.0 | 2.0 | 0.00 | 0.00 | 0.00 | 80 | 1020.4 |
| 20260901193518 | 62 | 0 | 0.0 | 3.0 | 0.00 | 0.00 | 0.00 | 80 | 1020.4 |
| 20260901193034 | 62 | 0 | 0.0 | 4.0 | 0.00 | 0.00 | 0.00 | 81 | 1020.3 |
| 20260901192517 | 62 | 225 | 1.0 | 4.0 | 0.00 | 0.00 | 0.00 | 81 | 1020.4 |
| 20260901192017 | 62 | 223 | 1.0 | 4.0 | 0.00 | 0.00 | 0.00 | 81 | 1020.5 |
| 20260901191534 | 62 | 219 | 2.0 | 4.0 | 0.00 | 0.00 | 0.00 | 80 | 1020.6 |
| 20260901191022 | 62 | 229 | 2.0 | 3.0 | 0.00 | 0.00 | 0.00 | 80 | 1020.5 |
| 20260901190519 | 62 | 0 | 0.0 | 3.0 | 0.00 | 0.00 | 0.00 | 80 | 1020.4 |
| 20260901190033 | 62 | 228 | 1.0 | 3.0 | 0.00 | 0.00 | 0.00 | 79 | 1020.3 |
| 20260901185520 | 62 | 0 | 0.0 | 0.0 | 0.00 | 0.00 | 0.00 | 79 | 1020.3 |
| 20260901185021 | 62 | 0 | 0.0 | 4.0 | 0.00 | 0.00 | 0.00 | 79 | 1020.3 |
| 20260901184533 | 62 | 0 | 0.0 | 4.0 | 0.00 | 0.00 | 0.00 | 79 | 1020.4 |
| 20260901184018 | 62 | 227 | 1.0 | 4.0 | 0.00 | 0.00 | 0.00 | 79 | 1020.4 |
| 20260901183517 | 62 | 229 | 1.0 | 4.0 | 0.00 | 0.00 | 0.00 | 78 | 1020.4 |
| 20260901183035 | 62 | 229 | 0.0 | 4.0 | 0.00 | 0.00 | 0.00 | 78 | 1020.3 |
| 20260901182518 | 63 | 226 | 2.0 | 7.0 | 0.00 | 0.00 | 0.00 | 78 | 1020.3 |
| 20260901182018 | 63 | 233 | 2.0 | 7.0 | 0.00 | 0.00 | 0.00 | 78 | 1020.3 |
| 20260901181539 | 63 | 223 | 2.0 | 5.0 | 0.00 | 0.00 | 0.00 | 77 | 1020.3 |
| 20260901181018 | 63 | 224 | 0.0 | 5.0 | 0.00 | 0.00 | 0.00 | 77 | 1020.3 |
| 20260901180519 | 63 | 236 | 0.0 | 7.0 | 0.00 | 0.00 | 0.00 | 77 | 1020.3 |
| 20260901180030 | 63 | 237 | 3.0 | 7.0 | 0.00 | 0.00 | 0.00 | 77 | 1020.5 |
| 20260901175518 | 63 | 229 | 1.0 | 3.0 | 0.00 | 0.00 | 0.00 | 77 | 1020.5 |
| 20260901175017 | 63 | 232 | 1.0 | 6.0 | 0.00 | 0.00 | 0.00 | 77 | 1020.5 |
| 20260901174533 | 63 | 228 | 2.0 | 9.0 | 0.00 | 0.00 | 0.00 | 77 | 1020.5 |
| 20260901174020 | 63 | 240 | 4.0 | 9.0 | 0.00 | 0.00 | 0.00 | 77 | 1020.4 |
| 20260901173518 | 63 | 207 | 3.0 | 9.0 | 0.00 | 0.00 | 0.00 | 76 | 1020.3 |
| 20260901173036 | 63 | 210 | 4.0 | 13.0 | 0.00 | 0.00 | 0.00 | 76 | 1020.3 |
| 20260901172518 | 63 | 239 | 4.0 | 13.0 | 0.00 | 0.00 | 0.00 | 76 | 1020.5 |
| 20260901172019 | 64 | 240 | 3.0 | 8.0 | 0.00 | 0.00 | 0.00 | 76 | 1020.6 |
| 20260901171539 | 64 | 0 | 1.0 | 6.0 | 0.00 | 0.00 | 0.00 | 75 | 1020.6 |
| 20260901171017 | 65 | 225 | 1.0 | 11.0 | 0.00 | 0.00 | 0.00 | 75 | 1020.7 |
| 20260901170519 | 65 | 257 | 2.0 | 15.0 | 0.00 | 0.00 | 0.00 | 74 | 1020.6 |
| 20260901170058 | 66 | 257 | 4.0 | 15.0 | 0.00 | 0.00 | 0.00 | 74 | 1020.3 |
| 20260901165518 | 66 | 259 | 4.0 | 10.0 | 0.00 | 0.00 | 0.00 | 73 | 1020.2 |
| 20260901165017 | 66 | 233 | 3.0 | 10.0 | 0.00 | 0.00 | 0.00 | 72 | 1020.1 |
| 20260901164541 | 66 | 360 | 5.0 | 10.0 | 0.00 | 0.00 | 0.00 | 72 | 1020.1 |
| 20260901164018 | 66 | 239 | 2.0 | 8.0 | 0.00 | 0.00 | 0.00 | 73 | 1020.0 |
| 20260901163517 | 65 | 198 | 2.0 | 13.0 | 0.00 | 0.00 | 0.00 | 73 | 1020.1 |
| 20260901163041 | 65 | 269 | 2.0 | 13.0 | 0.00 | 0.00 | 0.00 | 72 | 1020.3 |
| 20260901162520 | 65 | 240 | 4.0 | 11.0 | 0.00 | 0.00 | 0.00 | 72 | 1020.2 |
| 20260901162018 | 66 | 241 | 3.0 | 11.0 | 0.00 | 0.00 | 0.00 | 72 | 1020.2 |
| 20260901161534 | 66 | 238 | 5.0 | 11.0 | 0.00 | 0.00 | 0.00 | 71 | 1020.2 |
| 20260901161020 | 66 | 236 | 5.0 | 13.0 | 0.00 | 0.00 | 0.00 | 71 | 1020.2 |
| 20260901160515 | 67 | 238 | 3.0 | 13.0 | 0.00 | 0.00 | 0.00 | 70 | 1020.2 |
| 20260901160037 | 67 | 227 | 6.0 | 14.0 | 0.00 | 0.00 | 0.00 | 69 | 1020.1 |
| 20260901155517 | 67 | 221 | 6.0 | 15.0 | 0.00 | 0.00 | 0.00 | 70 | 1020.0 |
| 20260901155020 | 66 | 227 | 5.0 | 15.0 | 0.00 | 0.00 | 0.00 | 72 | 1020.1 |
| 20260901154534 | 66 | 240 | 7.0 | 15.0 | 0.00 | 0.00 | 0.00 | 71 | 1020.2 |
| 20260901154019 | 67 | 255 | 5.0 | 15.0 | 0.00 | 0.00 | 0.00 | 70 | 1020.2 |
| 20260901153520 | 67 | 238 | 6.0 | 20.0 | 0.00 | 0.00 | 0.00 | 69 | 1020.0 |
| 20260901153031 | 67 | 229 | 7.0 | 20.0 | 0.00 | 0.00 | 0.00 | 69 | 1019.9 |
| 20260901152518 | 68 | 259 | 6.0 | 20.0 | 0.00 | 0.00 | 0.00 | 67 | 1020.0 |
| 20260901152021 | 68 | 232 | 7.0 | 15.0 | 0.00 | 0.00 | 0.00 | 65 | 1020.0 |
| 20260901151531 | 68 | 214 | 7.0 | 12.0 | 0.00 | 0.00 | 0.00 | 63 | 1019.9 |
| 20260901151018 | 68 | 223 | 6.0 | 10.0 | 0.00 | 0.00 | 0.00 | 62 | 1019.9 |
| 20260901150517 | 69 | 202 | 5.0 | 13.0 | 0.00 | 0.00 | 0.00 | 62 | 1019.9 |
| 20260901150053 | 69 | 219 | 3.0 | 13.0 | 0.00 | 0.00 | 0.00 | 61 | 1019.8 |
| 20260901145518 | 70 | 274 | 3.0 | 11.0 | 0.00 | 0.00 | 0.00 | 60 | 1019.8 |
| 20260901145017 | 70 | 234 | 1.0 | 14.0 | 0.00 | 0.00 | 0.00 | 60 | 1019.8 |
| 20260901144532 | 70 | 360 | 5.0 | 14.0 | 0.00 | 0.00 | 0.00 | 58 | 1019.9 |
| 20260901144017 | 70 | 252 | 4.0 | 11.0 | 0.00 | 0.00 | 0.00 | 60 | 1019.9 |
| 20260901143518 | 69 | 246 | 2.0 | 11.0 | 0.00 | 0.00 | 0.00 | 60 | 1019.9 |
| 20260901143034 | 69 | 235 | 4.0 | 11.0 | 0.00 | 0.00 | 0.00 | 60 | 1019.9 |
| 20260901142519 | 70 | 227 | 4.0 | 11.0 | 0.00 | 0.00 | 0.00 | 59 | 1020.0 |
| 20260901142018 | 70 | 241 | 1.0 | 11.0 | 0.00 | 0.00 | 0.00 | 59 | 1020.0 |
| 20260901141533 | 70 | 229 | 4.0 | 13.0 | 0.00 | 0.00 | 0.00 | 59 | 1020.2 |
| 20260901141019 | 70 | 248 | 6.0 | 13.0 | 0.00 | 0.00 | 0.00 | 59 | 1020.1 |
| 20260901140518 | 70 | 236 | 2.0 | 11.0 | 0.00 | 0.00 | 0.00 | 60 | 1020.1 |
| 20260901140034 | 70 | 244 | 5.0 | 12.0 | 0.00 | 0.00 | 0.00 | 59 | 1020.0 |
| 20260901135518 | 70 | 236 | 3.0 | 12.0 | 0.00 | 0.00 | 0.00 | 59 | 1020.1 |
| 20260901135016 | 70 | 0 | 1.0 | 13.0 | 0.00 | 0.00 | 0.00 | 61 | 1020.1 |
| 20260901134535 | 70 | 254 | 2.0 | 13.0 | 0.00 | 0.00 | 0.00 | 61 | 1020.2 |